Tunnel Hill, GA

1:12 PM EDT on October 23, 2014 (GMT -0400)
Mt Vernon | Change Station
CLOSE
Current Station
Personal Weather Station
Location: Tunnel Hill, GA
Elevation: 904 ft
Nearby Weather Stations

Elev 904 ft 34.81 °N, 85.05 °W | Updated 4 seconds ago

Clear
Clear
61.0 °F
Feels Like 61.0 °F
N
4.5
Wind Variable Wind from NNE
Gusts 5.6 mph

Today
High -- | Low -- °F
--% Chance of Precip.
Yesterday
High -- | Low -- °F
Precip. -- in
7:52 AM 6:55 PM
Waning Crescent, 0% visible
Pressure 30.15 in
Visibility 10.0 miles
Clouds Clear
Dew Point 46 °F
Humidity 57%
Rainfall 0.00 in
Snow Depth Not available.
UV 6 out of 12
Pollen 1.70 out of 12
Air Quality Not available.
Flu Activity Sporadic
METAR KDNN 231655Z AUTO 35006KT 10SM CLR 15/07 A3015 RMK AO2

More Conditions Fewer Conditions

Pressure 30.15 in
Visibility 10.0 miles
Clouds Clear
Dew Point 46 °F
Humidity 57%
Rainfall 0.00 in
Snow Depth Not available.
UV 6 out of 12
Pollen 1.70 out of 12
Air Quality Not available.
Flu Activity Sporadic
METAR KDNN 231655Z AUTO 35006KT 10SM CLR 15/07 A3015 RMK AO2

More Conditions Fewer Conditions

10-Day Weather Forecast

Almanac

Astronomy

Oct. 23, 2014 Rise Set
Actual Time 7:52 AM EDT 6:55 PM EDT
Civil Twilight 7:27 AM EDT 7:21 PM EDT
Nautical Twilight 6:57 AM EDT 7:50 PM EDT
Astronomical Twilight 6:28 AM EDT 8:20 PM EDT
Moon 7:32 AM EDT 6:56 PM EDT
Length of Visible Light 11h 54m
Length of Day
11h 02m
Tomorrow will be 2m 0s shorter.
Waning Crescent, 0% of the Moon is Illuminated
Today
Waning Crescent
Oct 23
New
Oct 30
First Quarter
Nov 6
Full
Nov 14
Last Quarter

Today's Extremes

State Highs State Lows

Community

WunderPhotos

Upload Photos

1,764,316 photos uploaded!

WunderBlogs® & News

Nearby

Snow Depth

Station Depth Elevation
No new snow has been reported.

Earthquake Activity

City Distance Mag. Time & Date
No recent earthquake activity has been reported nearby.
Minimum magnitude displayed is 2.5.

Coastal Water Temperatures

Place Temperature
No Stations Reporting

Nearby Weather Stations